Main page
METAR-TAF:

METAR-TAF

Airports :

Nouakchott, Mauritania

Nouakchott–Oumtounsy International Airport

latitude: 18-18-36N, longitude: 015-58-11W, elevation: 3 m

Current weather observation

The report was made 36 minutes ago, at 05:30 UTC
Wind 4 kt from the East/Southeast
Temperature 24°C
Humidity 24%
Pressure 1011 hPa
Visibility 10 km or more
no clouds below 1500 m and no cumulonimbus

METAR: GQNO 240530Z 11004KT CAVOK 24/02 Q1011 NOSIG

Time: 06:06 (06:06 UTC)

Forecast

The report was made 1 hour and 6 minutes ago, at 05:00 UTC
Forecast valid from 24 at 06 UTC to 25 at 12 UTC
Wind 12 kt from the East
Visibility: 7000 m
Temporary
from 24 at 09 UTC to 24 at 15 UTC
Visibility: 4000 m
Blowing dust
Becoming
from 24 at 16 UTC to 24 at 18 UTC
Wind 12 kt from the North
Becoming
from 25 at 07 UTC to 25 at 09 UTC
Wind 10 kt from the East/Northeast

TAF: GQNO 240500Z 2406/2512 08012KT 7000 NSC TEMPO 2409/2415 4000 BLDU BECMG 2416/2418 35012KT BECMG 2507/2509 07010KT

Weather observations and forecasts of more than 4000 airports (METAR and TAF reports).

The available stations are represented by yellow and red dots on the map.

Hover mouse over dot to see the name of the station.

Then click to see weather observations and forecasts.

To change the map : click on the green buttons with a black cross to zoom in, on the green button with a dash to zoom out, or on the green arrows for adjacent maps.


METAR-TAF: